Aeroporto :







RITROVATECI SU...

 
LOGIN :

Iscrizione | Disclaimer

   EN    FR    IT 

 









Sommario :    VFR   VFR Marginale   IFR   IFR Intensivo   IFR Molto Intensivo
Visibilità : 
Base nubi : 
>= 8 km
>= 3000ft
5 / 8 km
1000 / 3000 ft
1500m / 5 km
500 / 1000 ft
800 / 1500m
200 / 500 ft
< 800m
< 200 ft
Simboli :   Temporali  Nebbia  Neve Forte  Precipitazioni Forti  Vento > 20 kt






- Altitudine del aeroporto : 16 ft
- Codice IATA : FDF


TFFF - Aime Cesaire

ULTIMO METAR :
  • 061800Z AUTO 11016KT 9999 FEW029 SCT043 30/23 Q1015 TEMPO 10015G25KT 4000 SHRA SCT018TCU

METARs OBSOLETI :
  • 061730Z AUTO 11013KT 9999 FEW027/// SCT034/// BKN074/// ///TCU 30/25 Q1016 TEMPO 10015G25KT 2000 SHRA FEW013CB BKN015TCU
  • 061700Z AUTO 11016KT 9999 SCT031 SCT043 31/24 Q1016 TEMPO 10015G25KT 2000 SHRA FEW013CB BKN015TCU
  • 061630Z AUTO 11015KT 9999 SCT027 BKN033 BKN041 31/25 Q1016 TEMPO 10015G25KT 2000 SHRA FEW013CB BKN015TCU
  • 061600Z AUTO 11015KT 9999 SCT031 BKN037 30/24 Q1017 TEMPO 10015G25KT 2000 SHRA FEW013CB BKN015TCU
  • 061530Z AUTO 12016KT 9999 FEW019 SCT029 BKN043 30/26 Q1017 TEMPO 10015G25KT 2000 SHRA FEW013CB BKN015TCU

TAF TAF TFFF
Valido dal 06 a 18 ore il 07 a 18 ore UTC


061600Z 0618/0718 11012KT 9999 SCT025 SCT050
TEMPO 0618/0718 4000 SHRA SCT018TCU
PROB40
TEMPO 0618/0621 10015G25KT
FIR TTZP / America del Nord



MetMap, La meteo Aeronautica in un colpo d'occhio ! - Copyright ORBIFLY Dicembre 2007 - Disclaimer

ORBIFLY MET'MAP TEAM :

Programmazione e sviluppo : Alexandra Zaïnal
Concezione : Baudouin d'Aumeries
Aiuto per la programmazione : Marc-Olivier Méhu
Supporto tecnico e logistico : Manuel Goepfert
Aiuto per la traduzione : Arnaldo La Scala

Contatto : metmap@orbifly.com




FONTI E CREDITI :

   NOAA